Time;durP1;ratioP1;P1;durP2;ratioP2;P2;SDS_P1;SDS_P2;PMS_P1;PMS_P2;Temp;Humidity;BMP_temperature;BMP_pressure;BME280_temperature;BME280_humidity;BME280_pressure;Samples;Min_cycle;Max_cycle;Signal;HPM_P1;HPM_P2
2022/12/13 00:01:20;;;;;;;5.80;5.50;;;16.90;59.00;;;;;;5082238;28;43600;-71
2022/12/13 00:03:48;;;;;;;5.67;5.40;;;16.90;59.10;;;;;;5067177;28;43558;-72
2022/12/13 00:06:19;;;;;;;5.30;5.10;;;16.90;59.00;;;;;;5086650;28;44029;-71
2022/12/13 00:08:47;;;;;;;5.37;5.17;;;17.00;58.70;;;;;;5088001;28;43378;-71
2022/12/13 00:11:15;;;;;;;5.80;5.50;;;17.10;58.50;;;;;;5086600;27;43422;-73
2022/12/13 00:13:43;;;;;;;5.37;5.17;;;17.00;58.40;;;;;;5060436;27;43578;-73
2022/12/13 00:16:13;;;;;;;5.63;5.23;;;17.00;58.40;;;;;;5085949;27;43804;-72
2022/12/13 00:18:41;;;;;;;5.37;5.17;;;17.00;58.70;;;;;;5063515;27;44447;-71
2022/12/13 00:21:11;;;;;;;5.30;5.10;;;17.00;58.60;;;;;;5080593;27;43468;-74
2022/12/13 00:23:40;;;;;;;5.00;4.80;;;17.00;58.60;;;;;;5080730;27;43593;-70
2022/12/13 00:26:11;;;;;;;5.20;5.00;;;17.00;58.60;;;;;;5080959;27;43967;-71
2022/12/13 00:28:39;;;;;;;5.03;4.83;;;16.90;58.60;;;;;;5080130;27;43460;-70
2022/12/13 00:31:07;;;;;;;5.70;5.40;;;16.90;58.70;;;;;;5079216;27;43418;-71
2022/12/13 00:33:55;;;;;;;5.60;5.40;;;16.90;58.80;;;;;;5064517;27;44104;-74
2022/12/13 00:36:22;;;;;;;5.63;5.33;;;16.90;58.80;;;;;;5083866;27;43841;-70
2022/12/13 00:39:00;;;;;;;5.90;5.60;;;16.90;58.80;;;;;;5084587;27;43591;-70
2022/12/13 00:41:29;;;;;;;5.83;5.53;;;16.90;58.80;;;;;;5082260;27;43543;-69
2022/12/13 00:43:57;;;;;;;5.47;5.27;;;16.90;58.70;;;;;;5084156;27;43556;-71
2022/12/13 00:46:25;;;;;;;5.57;5.37;;;16.90;58.80;;;;;;5084663;28;43960;-71
2022/12/13 00:48:54;;;;;;;5.50;5.27;;;16.80;58.80;;;;;;5063293;28;44971;-70
2022/12/13 00:51:23;;;;;;;5.13;4.93;;;16.80;58.90;;;;;;5078299;27;43455;-70
2022/12/13 00:53:52;;;;;;;5.17;4.97;;;16.80;58.80;;;;;;5076151;27;43515;-70
2022/12/13 00:56:22;;;;;;;5.50;5.30;;;16.80;58.80;;;;;;5065544;27;45657;-73
2022/12/13 00:58:50;;;;;;;5.77;5.57;;;16.80;58.80;;;;;;5066939;28;44627;-71
2022/12/13 01:01:21;;;;;;;5.30;5.10;;;16.80;58.80;;;;;;5077802;27;43495;-74
2022/12/13 01:03:49;;;;;;;5.67;5.37;;;16.80;58.80;;;;;;5083736;27;43503;-71
2022/12/13 01:06:19;;;;;;;5.80;5.60;;;16.80;59.00;;;;;;5076573;27;43945;-71
2022/12/13 01:08:47;;;;;;;5.60;5.40;;;16.80;59.00;;;;;;5074247;27;43498;-70
2022/12/13 01:11:17;;;;;;;5.73;5.30;;;16.90;58.90;;;;;;5065663;28;43500;-73
2022/12/13 01:13:45;;;;;;;5.97;5.67;;;17.00;58.60;;;;;;5077256;28;43489;-72
2022/12/13 01:16:13;;;;;;;5.70;5.40;;;17.00;58.40;;;;;;5077378;28;43916;-71
2022/12/13 01:18:41;;;;;;;5.50;5.30;;;17.00;58.40;;;;;;5076114;27;43904;-71
2022/12/13 01:21:11;;;;;;;5.50;5.30;;;17.00;58.40;;;;;;5074263;28;43379;-70
2022/12/13 01:23:39;;;;;;;6.03;5.73;;;16.90;58.60;;;;;;5064464;28;43645;-70
2022/12/13 01:26:09;;;;;;;4.87;4.77;;;16.90;58.50;;;;;;5074569;27;43910;-71
2022/12/13 01:28:38;;;;;;;5.23;5.03;;;16.90;58.50;;;;;;5080393;27;43539;-70
2022/12/13 01:31:07;;;;;;;5.53;5.23;;;16.90;58.50;;;;;;5060247;28;43555;-70
2022/12/13 01:33:35;;;;;;;5.80;5.53;;;16.90;58.60;;;;;;5080773;28;43374;-70
2022/12/13 01:36:05;;;;;;;5.33;5.03;;;16.90;58.60;;;;;;5083831;27;43927;-70
2022/12/13 01:38:33;;;;;;;6.00;5.70;;;16.80;58.60;;;;;;5076774;27;43518;-71
2022/12/13 01:41:05;;;;;;;5.67;5.37;;;16.80;58.70;;;;;;5076629;27;44020;-72
2022/12/13 01:43:56;;;;;;;5.17;4.97;;;16.80;58.70;;;;;;5079489;27;43404;-72
2022/12/13 01:46:24;;;;;;;6.00;5.70;;;16.80;58.70;;;;;;5082841;27;44354;-72
2022/12/13 01:48:56;;;;;;;6.03;5.73;;;16.80;58.60;;;;;;5061516;28;43454;-70
2022/12/13 01:51:27;;;;;;;5.23;5.03;;;16.80;58.70;;;;;;5065720;28;43506;-71
2022/12/13 01:53:55;;;;;;;5.57;5.37;;;16.80;58.70;;;;;;5066037;28;43610;-71
2022/12/13 01:56:25;;;;;;;5.70;5.40;;;16.80;58.80;;;;;;5077738;27;44849;-72
2022/12/13 01:58:54;;;;;;;5.20;5.00;;;16.80;58.80;;;;;;5071269;28;43495;-71
2022/12/13 02:01:22;;;;;;;5.33;5.13;;;16.80;58.80;;;;;;5076202;27;43477;-78
2022/12/13 02:03:50;;;;;;;5.67;5.37;;;16.80;58.80;;;;;;5079977;27;44647;-76
2022/12/13 02:06:21;;;;;;;5.60;5.40;;;16.80;58.70;;;;;;5076723;27;46030;-75
2022/12/13 02:08:49;;;;;;;5.57;5.37;;;16.80;58.70;;;;;;5064854;27;44703;-73
2022/12/13 02:11:17;;;;;;;6.03;5.73;;;16.80;58.80;;;;;;5081470;28;43485;-77
2022/12/13 02:13:45;;;;;;;5.87;5.57;;;16.80;59.00;;;;;;5085664;27;43513;-77
2022/12/13 02:16:17;;;;;;;6.13;5.80;;;16.80;58.80;;;;;;5072561;27;43963;-75
2022/12/13 02:18:57;;;;;;;6.00;5.70;;;16.90;58.60;;;;;;5080519;27;43473;-75
2022/12/13 02:21:31;;;;;;;5.30;5.10;;;17.00;58.30;;;;;;5077165;28;43484;-76
2022/12/13 02:24:35;;;;;;;5.27;4.97;;;17.00;58.20;;;;;;5064035;27;43439;-76
2022/12/13 02:27:11;;;;;;;5.37;5.17;;;17.00;58.20;;;;;;5066187;28;46310;-76
2022/12/13 02:30:12;;;;;;;5.53;5.23;;;16.90;58.30;;;;;;5060120;28;44717;-76
2022/12/13 02:32:43;;;;;;;5.37;5.17;;;16.90;58.20;;;;;;5083098;27;43399;-76
2022/12/13 02:35:13;;;;;;;5.90;5.70;;;16.90;58.30;;;;;;5059833;28;44266;-76
2022/12/13 02:37:48;;;;;;;5.03;4.83;;;16.90;58.40;;;;;;5078657;27;43686;-77
2022/12/13 02:40:19;;;;;;;5.03;4.83;;;16.80;58.30;;;;;;5083018;27;43432;-75
2022/12/13 02:42:50;;;;;;;5.33;5.13;;;16.80;58.40;;;;;;5086930;27;43528;-77
2022/12/13 02:45:23;;;;;;;5.53;5.33;;;16.80;58.60;;;;;;5069882;27;43420;-75
2022/12/13 02:47:55;;;;;;;5.53;5.33;;;16.80;58.50;;;;;;5084882;28;43852;-72
2022/12/13 02:50:23;;;;;;;5.60;5.40;;;16.80;58.60;;;;;;5082799;28;43485;-77
2022/12/13 02:52:51;;;;;;;5.27;5.07;;;16.80;58.50;;;;;;5085702;27;43543;-78
2022/12/13 02:55:19;;;;;;;5.73;5.33;;;16.80;58.50;;;;;;5068425;28;43439;-75
2022/12/13 02:57:53;;;;;;;6.07;5.67;;;16.80;58.60;;;;;;5081233;28;43953;-78
2022/12/13 03:00:24;;;;;;;5.60;5.30;;;16.70;58.50;;;;;;5078824;27;43520;-77
2022/12/13 03:02:59;;;;;;;5.70;5.40;;;16.70;58.70;;;;;;5087529;27;43485;-76
2022/12/13 03:08:21;;;;;;;5.60;5.40;;;16.90;58.40;;;;;;5077486;28;43832;-76
2022/12/13 03:10:55;;;;;;;5.20;5.00;;;16.90;58.30;;;;;;5087326;27;43551;-72
2022/12/13 03:13:37;;;;;;;5.10;4.90;;;16.90;58.30;;;;;;5080756;27;44463;-77
2022/12/13 03:16:13;;;;;;;5.20;5.00;;;16.90;58.30;;;;;;5089213;27;43541;-76
2022/12/13 03:18:50;;;;;;;5.33;5.13;;;16.80;58.40;;;;;;5078407;28;43619;-72
2022/12/13 03:21:18;;;;;;;5.50;5.30;;;16.80;58.30;;;;;;5075472;27;43569;-77
2022/12/13 03:23:46;;;;;;;5.70;5.50;;;16.80;58.30;;;;;;5080927;27;43450;-76
2022/12/13 03:26:16;;;;;;;6.10;5.80;;;16.80;58.30;;;;;;5085645;27;44010;-78
2022/12/13 03:28:44;;;;;;;5.97;5.67;;;16.80;58.40;;;;;;5066798;27;45723;-77
2022/12/13 03:31:13;;;;;;;5.63;5.43;;;16.80;58.40;;;;;;5085152;27;43925;-75
2022/12/13 03:33:41;;;;;;;6.00;5.70;;;16.80;58.50;;;;;;5067830;27;43415;-78
2022/12/13 03:36:09;;;;;;;5.53;5.33;;;16.70;58.40;;;;;;5062984;28;43555;-76
2022/12/13 03:38:38;;;;;;;5.47;5.27;;;16.70;58.40;;;;;;5077539;27;44058;-76
2022/12/13 03:41:08;;;;;;;5.83;5.63;;;16.70;58.40;;;;;;5066138;27;44987;-77
2022/12/13 03:43:36;;;;;;;5.97;5.77;;;16.70;58.40;;;;;;5083594;27;43465;-75
2022/12/13 03:46:04;;;;;;;5.80;5.60;;;16.70;58.40;;;;;;5067878;27;44165;-77
2022/12/13 03:48:33;;;;;;;5.37;5.17;;;16.70;58.40;;;;;;5085092;27;43808;-74
2022/12/13 03:51:01;;;;;;;5.90;5.60;;;16.70;58.50;;;;;;5086317;27;43457;-77
2022/12/13 03:53:29;;;;;;;5.37;5.17;;;16.70;58.40;;;;;;5086726;27;43532;-76
2022/12/13 03:56:01;;;;;;;5.20;5.00;;;16.70;58.40;;;;;;5068750;28;44172;-76
2022/12/13 03:58:29;;;;;;;6.07;5.80;;;16.70;58.40;;;;;;5067329;27;46916;-76
2022/12/13 04:01:04;;;;;;;5.70;5.50;;;16.70;58.40;;;;;;5065958;28;44595;-77
2022/12/13 04:03:34;;;;;;;5.87;5.67;;;16.70;58.40;;;;;;5067077;27;43834;-74
2022/12/13 04:06:01;;;;;;;5.50;5.30;;;16.70;58.50;;;;;;5083223;27;44076;-76
2022/12/13 04:08:29;;;;;;;5.50;5.30;;;16.70;58.70;;;;;;5086326;27;44077;-76
2022/12/13 04:10:57;;;;;;;5.43;5.23;;;16.70;58.60;;;;;;5081981;27;43461;-77
2022/12/13 04:13:33;;;;;;;5.60;5.40;;;16.80;58.30;;;;;;5084678;27;43675;-77
2022/12/13 04:16:04;;;;;;;5.50;5.30;;;16.90;58.00;;;;;;5084185;27;44420;-75
2022/12/13 04:18:34;;;;;;;5.70;5.50;;;16.90;57.90;;;;;;5082740;27;43607;-77
2022/12/13 04:21:02;;;;;;;5.40;5.20;;;16.90;57.90;;;;;;5084697;27;43473;-76
2022/12/13 04:23:30;;;;;;;5.73;5.53;;;16.80;58.10;;;;;;5085311;27;44837;-75
2022/12/13 04:25:58;;;;;;;6.17;5.87;;;16.80;58.00;;;;;;5087254;27;43513;-76
2022/12/13 04:28:26;;;;;;;6.23;5.93;;;16.80;58.00;;;;;;5080324;27;43924;-75
2022/12/13 04:30:54;;;;;;;5.63;5.43;;;16.80;58.10;;;;;;5083371;27;43464;-75
2022/12/13 04:33:22;;;;;;;6.50;6.20;;;16.80;58.10;;;;;;5085760;27;43419;-78
2022/12/13 04:35:52;;;;;;;5.50;5.30;;;16.80;58.10;;;;;;5066085;27;43760;-76
2022/12/13 04:38:20;;;;;;;5.90;5.70;;;16.70;58.10;;;;;;5085687;27;43977;-76
2022/12/13 04:40:49;;;;;;;5.50;5.30;;;16.70;58.30;;;;;;5067025;28;44689;-75
2022/12/13 04:43:17;;;;;;;5.77;5.57;;;16.70;58.30;;;;;;5086400;27;44027;-76
2022/12/13 04:45:45;;;;;;;5.80;5.50;;;16.70;58.20;;;;;;5086056;27;44046;-73
2022/12/13 04:48:13;;;;;;;6.23;5.93;;;16.70;58.20;;;;;;5086150;27;43761;-77
2022/12/13 04:51:00;;;;;;;6.20;5.90;;;16.70;58.20;;;;;;5086910;27;43395;-77
2022/12/13 04:53:28;;;;;;;5.80;5.60;;;16.70;58.20;;;;;;5087165;27;43493;-76
2022/12/13 04:55:56;;;;;;;6.07;5.87;;;16.70;58.40;;;;;;5084138;27;43576;-72
2022/12/13 04:58:24;;;;;;;6.13;5.83;;;16.70;58.50;;;;;;5085972;27;43892;-77
2022/12/13 05:00:52;;;;;;;5.70;5.50;;;16.70;58.30;;;;;;5061683;28;43983;-74
2022/12/13 05:03:20;;;;;;;5.70;5.43;;;16.80;58.10;;;;;;5082897;27;44939;-75
2022/12/13 05:05:48;;;;;;;6.47;6.17;;;16.80;58.00;;;;;;5084910;27;43597;-76
2022/12/13 05:08:18;;;;;;;6.17;5.90;;;16.80;58.00;;;;;;5083119;27;43849;-77
2022/12/13 05:10:46;;;;;;;5.80;5.30;;;16.80;58.00;;;;;;5082488;27;43521;-76
2022/12/13 05:13:14;;;;;;;6.00;5.60;;;16.70;58.10;;;;;;5066509;27;43513;-78
2022/12/13 05:15:42;;;;;;;5.80;5.30;;;16.70;58.10;;;;;;5081407;27;43490;-76
2022/12/13 05:18:10;;;;;;;6.13;5.83;;;16.70;58.10;;;;;;5083471;27;43840;-78
2022/12/13 05:20:38;;;;;;;6.10;5.80;;;16.70;58.10;;;;;;5068072;27;44636;-77
2022/12/13 05:23:06;;;;;;;5.97;5.47;;;16.70;58.10;;;;;;5082549;27;43415;-73
2022/12/13 05:25:36;;;;;;;5.80;5.60;;;16.70;58.10;;;;;;5067865;28;43562;-75
2022/12/13 05:28:05;;;;;;;5.70;5.40;;;16.70;58.20;;;;;;5079463;27;43841;-76
2022/12/13 05:30:53;;;;;;;7.77;5.00;;;16.70;58.20;;;;;;5083455;27;43477;-76
2022/12/13 05:33:21;;;;;;;6.40;5.87;;;16.70;58.20;;;;;;5082185;27;43390;-75
2022/12/13 05:35:49;;;;;;;6.20;5.77;;;16.70;58.20;;;;;;5080826;27;43493;-75
2022/12/13 05:38:21;;;;;;;5.63;5.33;;;16.70;58.20;;;;;;5084028;27;43873;-78
2022/12/13 05:40:51;;;;;;;5.67;5.43;;;16.70;58.20;;;;;;5084987;27;44102;-75
2022/12/13 05:43:19;;;;;;;5.77;5.57;;;16.70;58.20;;;;;;5060987;28;43485;-74
2022/12/13 05:45:49;;;;;;;5.40;5.20;;;16.60;58.30;;;;;;5084201;27;43493;-72
2022/12/13 05:48:17;;;;;;;6.10;5.80;;;16.70;58.30;;;;;;5063531;28;43845;-75
2022/12/13 05:50:52;;;;;;;5.60;5.40;;;16.80;58.10;;;;;;5063274;28;44779;-76
2022/12/13 05:53:38;;;;;;;5.90;5.50;;;16.80;57.90;;;;;;5063306;28;43578;-77
2022/12/13 05:56:08;;;;;;;4.93;4.77;;;16.80;57.80;;;;;;5062193;28;44070;-75
2022/12/13 05:58:36;;;;;;;5.47;5.27;;;16.80;57.80;;;;;;5078794;27;45659;-76
2022/12/13 06:01:07;;;;;;;5.67;5.47;;;16.80;57.80;;;;;;5060079;28;43496;-75
2022/12/13 06:03:34;;;;;;;5.40;5.20;;;16.80;58.00;;;;;;5064407;28;43454;-75
2022/12/13 06:06:03;;;;;;;5.30;4.90;;;16.80;57.90;;;;;;5064407;28;43402;-76
2022/12/13 06:08:31;;;;;;;5.70;5.50;;;16.80;57.90;;;;;;5062535;28;45087;-76
2022/12/13 06:11:00;;;;;;;5.47;5.27;;;16.80;58.00;;;;;;5053883;28;44045;-77
2022/12/13 06:13:41;;;;;;;5.83;5.53;;;16.70;58.00;;;;;;5063269;28;43744;-76
2022/12/13 06:16:11;;;;;;;5.80;5.60;;;16.70;57.90;;;;;;5064595;28;43456;-74
2022/12/13 06:18:51;;;;;;;5.33;5.13;;;16.70;58.00;;;;;;5060306;28;43681;-73
2022/12/13 06:21:29;;;;;;;5.50;5.30;;;16.70;58.00;;;;;;5058931;28;43411;-77
2022/12/13 06:24:13;;;;;;;5.00;4.80;;;16.70;58.00;;;;;;5062774;28;43545;-75
2022/12/13 06:26:41;;;;;;;5.60;5.40;;;16.70;58.60;;;;;;5064007;28;43453;-78
2022/12/13 06:29:14;;;;;;;5.40;5.20;;;16.70;58.00;;;;;;5063745;28;43698;-78
2022/12/13 06:31:53;;;;;;;6.00;5.70;;;16.70;58.00;;;;;;5062678;28;43425;-74
2022/12/13 06:34:30;;;;;;;6.33;6.03;;;16.70;58.10;;;;;;5061936;28;44099;-77
2022/12/13 06:36:58;;;;;;;5.63;5.43;;;16.70;58.20;;;;;;5059625;28;44078;-76
2022/12/13 06:39:28;;;;;;;5.93;5.43;;;16.70;58.00;;;;;;5056818;28;44838;-76
2022/12/13 06:42:01;;;;;;;5.77;5.27;;;16.80;57.80;;;;;;5062986;28;44387;-76
2022/12/13 06:44:30;;;;;;;5.10;4.90;;;16.80;57.80;;;;;;5062591;28;43512;-76
2022/12/13 06:46:58;;;;;;;5.60;5.37;;;16.80;57.80;;;;;;5067394;27;43481;-76
2022/12/13 06:49:40;;;;;;;5.87;5.50;;;16.80;57.80;;;;;;5082940;27;43615;-76
2022/12/13 06:52:10;;;;;;;5.53;5.33;;;16.70;57.70;;;;;;5083796;28;43400;-77
2022/12/13 06:54:38;;;;;;;5.50;5.30;;;16.80;57.80;;;;;;5086661;27;43491;-76
2022/12/13 06:57:06;;;;;;;5.17;4.97;;;16.80;57.80;;;;;;5065732;28;43561;-76
2022/12/13 06:59:36;;;;;;;5.40;5.10;;;16.80;57.90;;;;;;5084082;27;43868;-76
2022/12/13 07:02:05;;;;;;;5.20;5.00;;;16.70;57.80;;;;;;5063489;27;44712;-76
2022/12/13 07:04:51;;;;;;;5.37;5.17;;;16.70;57.80;;;;;;5062729;27;43686;-77
2022/12/13 07:07:19;;;;;;;5.63;5.43;;;16.70;57.90;;;;;;5086340;27;43985;-76
2022/12/13 07:09:47;;;;;;;5.30;5.10;;;16.70;57.90;;;;;;5084094;27;43924;-77
2022/12/13 07:12:15;;;;;;;5.87;5.67;;;16.70;57.90;;;;;;5065251;27;43721;-76
2022/12/13 07:14:45;;;;;;;5.27;5.07;;;16.70;57.90;;;;;;5085020;27;43460;-77
2022/12/13 07:17:12;;;;;;;5.60;5.40;;;16.70;57.90;;;;;;5080180;27;43468;-74
2022/12/13 07:20:00;;;;;;;6.03;5.73;;;16.70;57.90;;;;;;5082186;27;43575;-76
2022/12/13 07:22:28;;;;;;;5.17;4.97;;;16.70;57.80;;;;;;5064678;27;44957;-76
2022/12/13 07:25:03;;;;;;;5.50;5.27;;;16.70;58.00;;;;;;5085600;27;43419;-79
2022/12/13 07:27:31;;;;;;;5.90;5.60;;;16.70;57.90;;;;;;5088952;27;43451;-76
2022/12/13 07:30:00;;;;;;;6.00;5.60;;;16.80;57.80;;;;;;5086464;27;43855;-76
2022/12/13 07:32:28;;;;;;;5.20;5.00;;;16.80;57.70;;;;;;5071716;28;44809;-76
2022/12/13 07:34:56;;;;;;;5.10;4.90;;;16.80;57.60;;;;;;5087167;27;43419;-76
2022/12/13 07:37:25;;;;;;;5.23;5.03;;;16.80;57.60;;;;;;5084250;27;43497;-78
2022/12/13 07:39:58;;;;;;;5.33;5.03;;;16.80;57.60;;;;;;5085503;27;44026;-77
2022/12/13 07:42:31;;;;;;;4.97;4.77;;;16.80;57.70;;;;;;5083978;27;44449;-76
2022/12/13 07:45:01;;;;;;;4.70;4.60;;;16.80;57.60;;;;;;5085436;27;43489;-76
2022/12/13 07:47:29;;;;;;;5.00;4.80;;;16.80;57.70;;;;;;5071446;27;43465;-75
2022/12/13 07:49:58;;;;;;;5.23;5.03;;;16.70;57.70;;;;;;5066640;28;46224;-76
2022/12/13 07:52:26;;;;;;;5.40;5.20;;;16.70;57.80;;;;;;5065197;28;44823;-75
2022/12/13 07:54:54;;;;;;;5.07;4.70;;;16.70;57.90;;;;;;5071726;27;43522;-75
2022/12/13 07:57:22;;;;;;;5.00;4.80;;;16.70;58.10;;;;;;5088067;27;43421;-75
2022/12/13 07:59:50;;;;;;;5.10;4.90;;;16.70;58.00;;;;;;5086488;27;43670;-75
2022/12/13 08:02:19;;;;;;;5.73;5.20;;;16.80;58.00;;;;;;5068695;27;44369;-76
2022/12/13 08:04:48;;;;;;;4.77;4.57;;;16.80;57.80;;;;;;5072537;27;43439;-75
2022/12/13 08:07:22;;;;;;;5.07;4.87;;;16.80;57.90;;;;;;5087822;27;43438;-75
2022/12/13 08:09:50;;;;;;;5.03;4.83;;;16.80;57.90;;;;;;5072199;28;46177;-73
2022/12/13 08:12:20;;;;;;;5.40;5.10;;;16.80;58.00;;;;;;5078918;27;43486;-74
2022/12/13 08:14:50;;;;;;;4.90;4.70;;;16.70;57.90;;;;;;5082745;27;43529;-75
2022/12/13 08:17:22;;;;;;;4.63;4.53;;;16.70;57.90;;;;;;5063543;28;43830;-76
2022/12/13 08:19:49;;;;;;;5.70;5.37;;;16.80;57.90;;;;;;5066253;28;45691;-73
2022/12/13 08:22:19;;;;;;;6.07;5.67;;;16.70;57.60;;;;;;5086406;28;43546;-75
2022/12/13 08:24:51;;;;;;;5.87;5.57;;;16.70;57.60;;;;;;5085126;28;43436;-76
2022/12/13 08:27:19;;;;;;;5.67;5.37;;;16.70;57.60;;;;;;5086617;28;43473;-75
2022/12/13 08:29:47;;;;;;;5.77;5.53;;;16.70;57.90;;;;;;5086564;28;44913;-77
2022/12/13 08:32:15;;;;;;;6.10;5.80;;;16.70;57.90;;;;;;5085870;28;43580;-76
2022/12/13 08:34:44;;;;;;;5.57;5.37;;;16.70;57.90;;;;;;5065681;28;43499;-77
2022/12/13 08:37:12;;;;;;;5.30;5.10;;;16.70;58.00;;;;;;5082389;28;44622;-77
2022/12/13 08:39:40;;;;;;;5.40;5.10;;;16.70;58.00;;;;;;5080916;28;43983;-77
2022/12/13 08:42:10;;;;;;;6.00;5.70;;;16.70;58.10;;;;;;5064927;28;44301;-77
2022/12/13 08:44:46;;;;;;;5.67;5.47;;;16.70;58.20;;;;;;5066380;28;43503;-76
2022/12/13 08:47:14;;;;;;;5.80;5.50;;;16.70;58.20;;;;;;5082399;28;43578;-76
2022/12/13 08:49:54;;;;;;;5.90;5.60;;;16.70;58.10;;;;;;5083265;28;43868;-76
2022/12/13 08:52:22;;;;;;;6.07;5.77;;;16.80;58.00;;;;;;5064964;28;44420;-77
2022/12/13 08:54:50;;;;;;;5.47;5.27;;;16.80;57.90;;;;;;5081646;28;44684;-76
2022/12/13 08:57:18;;;;;;;6.23;5.83;;;16.80;57.90;;;;;;5083489;28;43500;-75
2022/12/13 08:59:46;;;;;;;5.67;5.37;;;16.80;58.00;;;;;;5083622;28;43904;-74
2022/12/13 09:02:14;;;;;;;5.40;5.10;;;16.80;58.10;;;;;;5082824;28;43592;-75
2022/12/13 09:04:43;;;;;;;5.57;5.27;;;16.80;58.10;;;;;;5079922;28;43493;-74
2022/12/13 09:07:12;;;;;;;5.30;5.10;;;16.80;58.10;;;;;;5063951;28;43516;-76
2022/12/13 09:09:40;;;;;;;5.73;5.43;;;16.80;58.10;;;;;;5082648;28;44580;-77
2022/12/13 09:12:08;;;;;;;5.40;5.20;;;16.80;58.20;;;;;;5084258;27;43501;-78
2022/12/13 09:14:56;;;;;;;5.43;5.23;;;16.80;58.20;;;;;;5083419;28;43418;-77
2022/12/13 09:17:31;;;;;;;6.27;5.87;;;16.80;58.30;;;;;;5081909;28;43486;-76
2022/12/13 09:20:06;;;;;;;5.67;5.30;;;16.70;58.30;;;;;;5084098;28;43891;-77
2022/12/13 09:22:56;;;;;;;5.77;5.50;;;16.80;58.20;;;;;;5083029;28;43447;-77
2022/12/13 09:25:30;;;;;;;5.60;5.23;;;16.80;58.10;;;;;;5083012;28;43897;-77
2022/12/13 09:28:06;;;;;;;5.73;5.53;;;16.80;58.10;;;;;;5084061;28;43495;-73
2022/12/13 09:30:34;;;;;;;5.70;5.40;;;16.80;58.10;;;;;;5079510;28;44235;-76
2022/12/13 09:33:02;;;;;;;5.20;5.00;;;16.80;58.20;;;;;;5084085;28;44036;-75
2022/12/13 09:35:50;;;;;;;6.00;5.70;;;16.80;58.30;;;;;;5081467;28;43496;-76
2022/12/13 09:38:21;;;;;;;5.47;5.27;;;16.80;58.30;;;;;;5083465;28;43433;-77
2022/12/13 09:40:49;;;;;;;5.70;5.43;;;16.70;58.30;;;;;;5065834;28;45594;-76
2022/12/13 09:43:27;;;;;;;5.70;5.40;;;16.80;58.50;;;;;;5080924;27;43501;-77
2022/12/13 09:45:59;;;;;;;5.43;5.13;;;16.70;58.40;;;;;;5077450;27;43520;-76
2022/12/13 09:48:28;;;;;;;6.03;5.73;;;16.70;58.40;;;;;;5081170;27;43485;-77
2022/12/13 09:51:02;;;;;;;5.67;5.37;;;16.70;58.40;;;;;;5084414;28;43840;-76
2022/12/13 09:53:52;;;;;;;5.80;5.50;;;16.70;58.50;;;;;;5081222;28;43501;-72
2022/12/13 09:56:20;;;;;;;5.97;5.70;;;16.70;58.30;;;;;;5082094;27;43504;-73
2022/12/13 09:58:48;;;;;;;5.83;5.60;;;16.80;58.30;;;;;;5065591;28;44170;-77
2022/12/13 10:01:16;;;;;;;6.13;5.83;;;16.80;58.20;;;;;;5080414;27;44420;-76
2022/12/13 10:03:51;;;;;;;5.23;5.03;;;16.80;58.20;;;;;;5080745;27;43544;-74
2022/12/13 10:06:20;;;;;;;5.53;5.23;;;16.80;58.20;;;;;;5062532;28;44050;-78
2022/12/13 10:08:52;;;;;;;6.10;5.60;;;16.80;58.30;;;;;;5086119;27;43948;-74
2022/12/13 10:11:25;;;;;;;5.17;4.97;;;16.80;58.40;;;;;;5083224;27;43600;-76
2022/12/13 10:14:01;;;;;;;5.90;5.60;;;16.80;58.40;;;;;;5082753;27;43534;-77
2022/12/13 10:16:34;;;;;;;6.00;5.70;;;16.80;58.30;;;;;;5079264;27;44668;-77
2022/12/13 10:19:13;;;;;;;5.53;5.23;;;16.80;58.40;;;;;;5062581;27;44456;-78
2022/12/13 10:21:57;;;;;;;5.30;5.00;;;16.80;58.40;;;;;;5083573;27;44685;-76
2022/12/13 10:24:47;;;;;;;5.87;5.57;;;16.70;58.30;;;;;;5082153;27;43932;-75
2022/12/13 10:27:16;;;;;;;5.30;5.10;;;16.70;58.30;;;;;;5064692;27;43505;-75
2022/12/13 10:30:01;;;;;;;5.13;4.93;;;16.70;58.40;;;;;;5064441;28;43599;-78
2022/12/13 10:32:32;;;;;;;5.50;5.30;;;16.70;58.40;;;;;;5064112;27;45560;-77
2022/12/13 10:35:13;;;;;;;5.33;5.13;;;16.70;58.50;;;;;;5063536;27;44394;-76
2022/12/13 10:37:40;;;;;;;6.03;5.73;;;16.70;58.40;;;;;;5081265;27;43502;-76
2022/12/13 10:40:24;;;;;;;5.23;5.03;;;16.70;58.40;;;;;;5062624;27;43972;-76
2022/12/13 10:43:14;;;;;;;5.67;5.30;;;16.70;58.60;;;;;;5064430;28;45731;-76
2022/12/13 10:45:43;;;;;;;6.03;5.43;;;16.70;58.60;;;;;;5083651;27;43576;-77
2022/12/13 10:48:19;;;;;;;5.97;5.57;;;16.80;58.40;;;;;;5079351;27;44020;-76
2022/12/13 10:50:56;;;;;;;5.47;5.00;;;16.80;58.40;;;;;;5083609;27;43499;-74
2022/12/13 10:53:25;;;;;;;5.73;5.23;;;16.80;58.40;;;;;;5084471;27;44472;-77
2022/12/13 10:55:55;;;;;;;5.67;5.37;;;16.80;58.40;;;;;;5082190;27;44086;-75
2022/12/13 10:58:37;;;;;;;8.27;5.90;;;16.80;58.40;;;;;;5081321;27;44485;-76
2022/12/13 11:01:09;;;;;;;5.53;5.23;;;16.80;58.40;;;;;;5084941;27;43948;-77
2022/12/13 11:03:38;;;;;;;5.30;4.90;;;16.80;58.60;;;;;;5091443;27;43837;-78
2022/12/13 11:06:06;;;;;;;5.80;5.37;;;16.80;58.50;;;;;;5082971;27;43447;-77
2022/12/13 11:08:34;;;;;;;5.80;5.47;;;16.70;58.50;;;;;;5086718;27;43640;-76
2022/12/13 11:11:05;;;;;;;5.27;5.07;;;16.70;58.50;;;;;;5087231;27;43468;-75
2022/12/13 11:13:35;;;;;;;5.50;4.97;;;16.70;58.60;;;;;;5088616;27;43912;-75
2022/12/13 11:16:05;;;;;;;5.53;5.13;;;16.70;58.60;;;;;;5069437;28;44728;-75
2022/12/13 11:18:35;;;;;;;5.43;5.20;;;16.70;58.60;;;;;;5086036;28;43481;-76
2022/12/13 11:21:03;;;;;;;7.03;5.47;;;16.70;58.60;;;;;;5071824;28;43439;-77
2022/12/13 11:23:33;;;;;;;5.60;5.30;;;16.70;58.50;;;;;;5088391;28;43864;-76
2022/12/13 11:26:02;;;;;;;5.57;5.17;;;16.70;58.60;;;;;;5071116;28;43556;-76
2022/12/13 11:28:54;;;;;;;5.37;5.07;;;16.70;58.50;;;;;;5086746;28;43465;-74
2022/12/13 11:31:25;;;;;;;5.43;5.13;;;16.70;58.50;;;;;;5076553;28;43533;-77
2022/12/13 11:33:57;;;;;;;5.70;5.20;;;16.70;58.60;;;;;;5082763;27;43949;-75
2022/12/13 11:36:30;;;;;;;5.60;5.20;;;16.80;58.50;;;;;;5070083;28;44905;-76
2022/12/13 11:39:05;;;;;;;5.60;5.20;;;16.80;58.30;;;;;;5086750;28;43466;-75
2022/12/13 11:41:35;;;;;;;5.50;5.30;;;16.80;58.20;;;;;;5085850;28;44528;-77
2022/12/13 11:44:09;;;;;;;5.50;5.23;;;16.80;58.10;;;;;;5086370;28;43732;-77
2022/12/13 11:46:38;;;;;;;5.17;4.70;;;16.80;58.10;;;;;;5083874;28;43567;-74
2022/12/13 11:49:09;;;;;;;5.60;5.27;;;16.80;58.20;;;;;;5084952;28;43596;-75
2022/12/13 11:51:40;;;;;;;5.13;4.80;;;16.80;58.20;;;;;;5086154;28;43554;-75
2022/12/13 11:54:10;;;;;;;4.70;4.50;;;16.80;58.20;;;;;;5084540;28;43673;-74
2022/12/13 11:56:40;;;;;;;5.03;4.83;;;16.80;58.20;;;;;;5083944;28;43489;-75
2022/12/13 11:59:14;;;;;;;5.07;4.87;;;16.80;58.30;;;;;;5085981;27;44349;-74
2022/12/13 12:01:54;;;;;;;5.13;4.83;;;16.70;58.30;;;;;;5084144;28;43508;-75
2022/12/13 12:04:27;;;;;;;5.20;4.90;;;16.70;58.30;;;;;;5084708;28;43915;-76
2022/12/13 12:06:57;;;;;;;4.70;4.50;;;16.70;58.40;;;;;;5084378;28;43461;-77
2022/12/13 12:09:49;;;;;;;5.63;5.10;;;16.70;58.40;;;;;;5068117;28;44098;-73
2022/12/13 12:12:21;;;;;;;5.03;4.73;;;16.70;58.40;;;;;;5085814;28;43983;-75
2022/12/13 12:14:53;;;;;;;5.40;5.10;;;16.70;58.40;;;;;;5085703;28;44001;-75
2022/12/13 12:17:23;;;;;;;5.30;5.10;;;16.70;58.40;;;;;;5083067;28;43501;-77
2022/12/13 12:19:53;;;;;;;5.20;5.00;;;16.70;58.40;;;;;;5084702;28;43483;-76
2022/12/13 12:22:28;;;;;;;5.07;4.87;;;16.70;58.50;;;;;;5066753;28;43532;-77
2022/12/13 12:25:06;;;;;;;5.47;5.13;;;16.70;58.50;;;;;;5085576;28;43871;-75
2022/12/13 12:27:38;;;;;;;4.90;4.70;;;16.80;58.40;;;;;;5084340;28;43482;-75
2022/12/13 12:30:12;;;;;;;4.73;4.60;;;16.80;58.20;;;;;;5085640;28;43583;-74
2022/12/13 12:32:53;;;;;;;4.67;4.47;;;16.80;58.20;;;;;;5087097;28;43489;-76
2022/12/13 12:35:39;;;;;;;4.47;4.37;;;16.80;58.30;;;;;;5089437;27;43779;-73
2022/12/13 12:38:20;;;;;;;5.30;4.90;;;16.80;58.30;;;;;;5088389;28;43490;-77
2022/12/13 12:41:15;;;;;;;4.93;4.73;;;16.80;58.40;;;;;;5088335;28;43556;-77
2022/12/13 12:43:44;;;;;;;4.67;4.47;;;16.80;58.40;;;;;;5084765;28;43436;-74
2022/12/13 12:46:24;;;;;;;5.27;4.87;;;16.80;58.40;;;;;;5084214;28;43947;-77
2022/12/13 12:49:17;;;;;;;4.67;4.47;;;16.80;58.40;;;;;;5083277;28;43531;-74
2022/12/13 12:51:47;;;;;;;4.20;4.10;;;16.80;58.40;;;;;;5067711;28;43655;-75
2022/12/13 12:54:26;;;;;;;4.90;4.60;;;16.80;58.50;;;;;;5085443;28;43466;-77
2022/12/13 12:57:02;;;;;;;4.53;4.33;;;16.80;58.50;;;;;;5083670;28;45849;-76
2022/12/13 12:59:33;;;;;;;4.33;4.23;;;16.80;58.50;;;;;;5085969;28;43442;-76
2022/12/13 13:02:06;;;;;;;4.77;4.57;;;16.80;58.50;;;;;;5068258;28;43479;-76
2022/12/13 13:04:38;;;;;;;4.77;4.57;;;16.80;58.50;;;;;;5085167;28;43944;-75
2022/12/13 13:07:07;;;;;;;4.90;4.60;;;16.80;58.50;;;;;;5081870;28;44139;-76
2022/12/13 13:09:51;;;;;;;5.10;4.80;;;16.80;59.10;;;;;;5084865;28;44058;-73
2022/12/13 13:12:22;;;;;;;4.73;4.43;;;16.80;58.60;;;;;;5084017;28;43963;-76
2022/12/13 13:14:57;;;;;;;6.77;5.77;;;16.80;58.60;;;;;;5065700;28;43545;-76